createdAt,value
2022-08-10T00:01:04.233Z,101732.16
2022-08-10T00:03:30.799Z,101736.28
2022-08-10T00:05:57.318Z,101712.50
2022-08-10T00:08:24.642Z,101739.81
2022-08-10T00:10:53.196Z,101734.94
2022-08-10T00:13:20.467Z,101738.22
2022-08-10T00:15:53.860Z,101739.66
2022-08-10T00:18:28.890Z,101731.53
2022-08-10T00:21:02.342Z,101724.84
2022-08-10T00:23:28.865Z,101713.09
2022-08-10T00:25:56.772Z,101731.34
2022-08-10T00:28:23.284Z,101712.31
2022-08-10T00:30:49.932Z,101725.75
2022-08-10T00:33:16.431Z,101718.63
2022-08-10T00:35:43.235Z,101727.59
2022-08-10T00:38:09.785Z,101717.09
2022-08-10T00:40:37.739Z,101710.94
2022-08-10T00:43:06.372Z,101726.50
2022-08-10T00:45:33.139Z,101720.91
2022-08-10T00:47:59.800Z,101706.50
2022-08-10T00:50:26.618Z,101701.06
2022-08-10T00:52:53.542Z,101700.78
2022-08-10T00:55:20.709Z,101717.47
2022-08-10T00:57:55.388Z,101691.84
2022-08-10T01:00:24.486Z,101694.63
2022-08-10T01:02:51.274Z,101711.59
2022-08-10T01:05:18.621Z,101699.56
2022-08-10T01:08:14.092Z,101710.06
2022-08-10T01:10:55.125Z,101710.38
2022-08-10T01:13:26.257Z,101713.44
2022-08-10T01:16:04.235Z,101712.88
2022-08-10T01:18:38.172Z,101710.66
2022-08-10T01:21:23.322Z,101717.09
2022-08-10T01:24:05.359Z,101712.19
2022-08-10T01:26:49.386Z,101711.34
2022-08-10T01:29:48.111Z,101712.47
2022-08-10T01:32:17.842Z,101709.34
2022-08-10T01:34:50.536Z,101712.00
2022-08-10T01:37:20.485Z,101710.78
2022-08-10T01:39:52.563Z,101701.78
2022-08-10T01:42:22.222Z,101707.09
2022-08-10T01:44:55.064Z,101703.75
2022-08-10T01:47:27.567Z,101692.22
2022-08-10T01:49:59.302Z,101712.28
2022-08-10T01:52:27.914Z,101709.03
2022-08-10T01:54:56.468Z,101713.94
2022-08-10T01:57:25.383Z,101711.41
2022-08-10T02:00:02.309Z,101708.72
2022-08-10T02:02:33.899Z,101709.00
2022-08-10T02:05:03.234Z,101709.81
2022-08-10T02:07:31.162Z,101715.69
2022-08-10T02:10:02.678Z,101708.50
2022-08-10T02:12:34.052Z,101724.75
2022-08-10T02:15:05.825Z,101725.97
2022-08-10T02:18:00.937Z,101718.41
2022-08-10T02:20:25.009Z,101719.53
2022-08-10T02:22:58.034Z,101724.38
2022-08-10T02:25:41.738Z,101718.72
2022-08-10T02:28:12.668Z,101736.91
2022-08-10T02:30:59.161Z,101741.66
2022-08-10T02:33:27.320Z,101729.88
2022-08-10T02:35:56.036Z,101722.38
2022-08-10T02:38:59.391Z,101734.22
2022-08-10T02:45:14.669Z,101733.31
2022-08-10T02:45:15.216Z,101728.44
2022-08-10T02:47:12.912Z,101733.94
2022-08-10T02:49:43.196Z,101731.09
2022-08-10T02:52:16.481Z,101736.53
2022-08-10T02:54:49.386Z,101730.53
2022-08-10T02:57:22.710Z,101737.75
2022-08-10T02:59:51.327Z,101733.69
2022-08-10T03:02:34.877Z,101731.41
2022-08-10T03:05:06.103Z,101717.94
2022-08-10T03:07:43.559Z,101732.63
2022-08-10T03:10:16.078Z,101731.78
2022-08-10T03:12:43.977Z,101730.84
2022-08-10T03:15:15.757Z,101736.38
2022-08-10T03:17:57.544Z,101734.97
2022-08-10T03:20:37.482Z,101736.31
2022-08-10T03:23:10.482Z,101738.41
2022-08-10T03:25:37.696Z,101732.59
2022-08-10T03:28:05.601Z,101713.13
2022-08-10T03:30:34.309Z,101721.66
2022-08-10T03:33:04.671Z,101707.13
2022-08-10T03:35:31.675Z,101715.22
2022-08-10T03:37:59.717Z,101723.78
2022-08-10T03:40:45.072Z,101721.25
2022-08-10T03:43:17.322Z,101715.88
2022-08-10T03:45:54.560Z,101717.28
2022-08-10T03:48:32.311Z,101717.69
2022-08-10T03:51:13.324Z,101713.09
2022-08-10T03:54:06.192Z,101695.53
2022-08-10T03:56:32.074Z,101685.69
2022-08-10T03:58:59.998Z,101710.00
2022-08-10T04:02:43.756Z,101721.34
2022-08-10T04:04:19.239Z,101727.34
2022-08-10T04:06:51.392Z,101730.97
2022-08-10T04:09:22.194Z,101730.25
2022-08-10T04:11:48.795Z,101723.19
2022-08-10T04:14:38.115Z,101734.25
2022-08-10T04:17:02.349Z,101711.09
2022-08-10T04:19:36.730Z,101732.78
2022-08-10T04:22:09.611Z,101721.84
2022-08-10T04:24:39.745Z,101736.56
2022-08-10T04:27:06.678Z,101729.66
2022-08-10T04:29:33.470Z,101731.75
2022-08-10T04:32:02.906Z,101735.31
2022-08-10T04:34:32.187Z,101736.28
2022-08-10T04:37:04.367Z,101736.94
2022-08-10T04:39:33.783Z,101733.44
2022-08-10T04:42:00.695Z,101733.78
2022-08-10T04:44:27.378Z,101733.59
2022-08-10T04:46:58.432Z,101725.66
2022-08-10T04:49:54.168Z,101731.84
2022-08-10T04:52:14.492Z,101724.16
2022-08-10T04:54:41.780Z,101730.00
2022-08-10T04:57:09.138Z,101696.75
2022-08-10T04:59:36.014Z,101726.22
2022-08-10T05:02:22.889Z,101731.63
2022-08-10T05:04:49.673Z,101728.69
2022-08-10T05:07:18.161Z,101735.31
2022-08-10T05:10:02.699Z,101736.03
2022-08-10T05:12:35.750Z,101729.88
2022-08-10T05:15:05.393Z,101740.09
2022-08-10T05:17:31.976Z,101736.22
2022-08-10T05:20:02.225Z,101730.91
2022-08-10T05:22:36.317Z,101731.16
2022-08-10T05:25:04.627Z,101735.53
2022-08-10T05:27:31.217Z,101743.25
2022-08-10T05:30:01.191Z,101749.88
2022-08-10T05:32:28.507Z,101736.88
2022-08-10T05:34:55.118Z,101745.88
2022-08-10T05:38:10.295Z,101745.34
2022-08-10T05:40:11.650Z,101757.56
2022-08-10T05:42:39.174Z,101752.41
2022-08-10T05:45:06.685Z,101716.97
2022-08-10T05:48:57.769Z,101741.81
2022-08-10T05:50:26.667Z,101755.69
2022-08-10T05:52:53.714Z,101735.50
2022-08-10T05:55:22.809Z,101758.56
2022-08-10T05:57:50.430Z,101755.75
2022-08-10T06:00:36.728Z,101754.81
2022-08-10T06:03:08.088Z,101755.38
2022-08-10T06:05:38.960Z,101750.16
2022-08-10T06:08:12.618Z,101750.28
2022-08-10T06:12:21.750Z,101717.34
2022-08-10T06:13:34.749Z,101747.47
2022-08-10T06:16:20.113Z,101733.56
2022-08-10T06:18:47.481Z,101733.66
2022-08-10T06:21:15.352Z,101740.66
2022-08-10T06:23:44.346Z,101740.59
2022-08-10T06:26:14.926Z,101744.47
2022-08-10T06:28:52.996Z,101728.47
2022-08-10T06:31:46.601Z,101742.38
2022-08-10T06:34:17.408Z,101707.66
2022-08-10T06:36:46.323Z,101736.81
2022-08-10T06:39:32.301Z,101750.63
2022-08-10T06:42:16.536Z,101722.25
2022-08-10T06:44:54.319Z,101744.94
2022-08-10T06:47:25.400Z,101745.56
2022-08-10T06:50:00.204Z,101733.41
2022-08-10T06:52:31.447Z,101749.19
2022-08-10T06:55:00.502Z,101755.97
2022-08-10T06:57:32.272Z,101743.16
2022-08-10T07:00:02.635Z,101736.84
2022-08-10T07:02:36.411Z,101750.38
2022-08-10T07:05:06.060Z,101748.94
2022-08-10T07:07:36.696Z,101761.59
2022-08-10T07:10:03.975Z,101757.28
2022-08-10T07:12:34.917Z,101753.47
2022-08-10T07:15:03.017Z,101747.38
2022-08-10T07:17:35.908Z,101738.47
2022-08-10T07:20:08.210Z,101741.84
2022-08-10T07:23:01.281Z,101744.72
2022-08-10T07:25:27.186Z,101753.06
2022-08-10T07:28:00.814Z,101736.47
2022-08-10T07:30:29.867Z,101727.22
2022-08-10T07:32:56.938Z,101739.75
2022-08-10T07:35:26.299Z,101752.25
2022-08-10T07:37:54.615Z,101744.44
2022-08-10T07:40:22.244Z,101715.25
2022-08-10T07:42:52.162Z,101743.59
2022-08-10T07:45:20.327Z,101740.72
2022-08-10T07:47:55.485Z,101740.63
2022-08-10T07:50:25.279Z,101741.16
2022-08-10T07:52:53.342Z,101723.06
2022-08-10T07:56:05.235Z,101733.78
2022-08-10T07:58:09.023Z,101745.50
2022-08-10T08:00:37.967Z,101739.41
2022-08-10T08:03:05.433Z,101740.09
2022-08-10T08:06:02.962Z,101747.97
2022-08-10T08:08:21.211Z,101743.28
2022-08-10T08:10:48.639Z,101756.44
2022-08-10T08:13:17.067Z,101749.34
2022-08-10T08:16:17.719Z,101753.28
2022-08-10T08:18:37.633Z,101762.56
2022-08-10T08:21:12.674Z,101747.06
2022-08-10T08:24:06.697Z,101757.84
2022-08-10T08:26:41.052Z,101753.56
2022-08-10T08:29:10.684Z,101742.19
2022-08-10T08:32:01.135Z,101748.50
2022-08-10T08:34:27.688Z,101749.25
2022-08-10T08:36:59.427Z,101745.97
2022-08-10T08:39:26.772Z,101752.91
2022-08-10T08:42:13.143Z,101747.50
2022-08-10T08:44:59.199Z,101728.16
2022-08-10T08:48:03.737Z,101737.13
2022-08-10T08:50:42.872Z,101743.53
2022-08-10T08:53:24.683Z,101739.41
2022-08-10T08:56:21.579Z,101731.28
2022-08-10T08:59:05.773Z,101719.97
2022-08-10T09:01:48.031Z,101726.78
2022-08-10T09:04:31.279Z,101726.56
2022-08-10T09:07:59.312Z,101699.03
2022-08-10T09:10:10.240Z,101722.34
2022-08-10T09:12:50.019Z,101705.91
2022-08-10T09:15:40.293Z,101703.44
2022-08-10T09:18:13.812Z,101709.75
2022-08-10T09:20:48.978Z,101696.53
2022-08-10T09:24:01.972Z,101697.66
2022-08-10T09:26:18.604Z,101697.72
2022-08-10T09:28:45.962Z,101695.94
2022-08-10T09:33:05.989Z,101683.25
2022-08-10T09:36:29.788Z,101680.59
2022-08-10T09:37:40.011Z,101685.88
2022-08-10T09:41:00.121Z,101686.19
2022-08-10T09:43:26.662Z,101681.22
2022-08-10T09:46:05.974Z,101681.88
2022-08-10T09:48:47.225Z,101678.16
2022-08-10T09:51:44.888Z,101675.41
2022-08-10T09:54:27.312Z,101673.22
2022-08-10T09:57:41.511Z,101675.63
2022-08-10T10:00:01.566Z,101670.47
2022-08-10T10:02:40.066Z,101668.78
2022-08-10T10:05:22.826Z,101665.53
2022-08-10T10:07:57.524Z,101659.13
2022-08-10T10:10:32.837Z,101658.50
2022-08-10T10:13:03.611Z,101664.09
2022-08-10T10:15:35.022Z,101650.78
2022-08-10T10:18:19.931Z,101649.44
2022-08-10T10:20:55.786Z,101643.78
2022-08-10T10:23:35.077Z,101648.66
2022-08-10T10:26:18.286Z,101650.31
2022-08-10T10:29:24.820Z,101634.94
2022-08-10T10:31:54.656Z,101637.28
2022-08-10T10:34:30.331Z,101626.97
2022-08-10T10:36:59.731Z,101631.25
2022-08-10T10:39:27.293Z,101628.25
2022-08-10T10:42:11.676Z,101619.94
2022-08-10T10:44:52.016Z,101620.03
2022-08-10T10:47:35.031Z,101622.66
2022-08-10T10:50:10.674Z,101614.00
2022-08-10T10:52:45.298Z,101616.97
2022-08-10T10:55:22.966Z,101604.91
2022-08-10T10:58:00.949Z,101601.66
2022-08-10T11:00:36.883Z,101603.22
2022-08-10T11:03:23.594Z,101594.06
2022-08-10T11:06:02.034Z,101604.59
2022-08-10T11:08:34.409Z,101597.50
2022-08-10T11:11:21.633Z,101603.81
2022-08-10T11:14:25.985Z,101593.31
2022-08-10T11:17:00.137Z,101597.88
2022-08-10T11:20:02.288Z,101583.31
2022-08-10T11:22:28.268Z,101573.50
2022-08-10T11:25:01.751Z,101578.44
2022-08-10T11:27:39.041Z,101570.59
2022-08-10T11:30:09.974Z,101575.41
2022-08-10T11:32:53.401Z,101573.06
2022-08-10T11:35:34.175Z,101573.25
2022-08-10T11:38:30.201Z,101569.19
2022-08-10T11:41:14.555Z,101566.94
2022-08-10T11:43:56.907Z,101569.75
2022-08-10T11:46:31.675Z,101555.69
2022-08-10T11:49:06.072Z,101561.97
2022-08-10T11:51:45.810Z,101546.53
2022-08-10T11:54:21.548Z,101551.19
2022-08-10T11:56:50.564Z,101524.47
2022-08-10T11:59:19.240Z,101521.84
2022-08-10T12:01:50.000Z,101537.50
2022-08-10T12:04:17.143Z,101540.69
2022-08-10T12:06:55.719Z,101549.69
2022-08-10T12:10:08.634Z,101510.34
2022-08-10T12:12:12.220Z,101538.69
2022-08-10T12:14:46.463Z,101526.03
2022-08-10T12:17:19.382Z,101528.75
2022-08-10T12:19:59.302Z,101483.16
2022-08-10T12:22:33.881Z,101525.31
2022-08-10T12:25:04.722Z,101518.22
2022-08-10T12:27:36.587Z,101522.66
2022-08-10T12:30:05.932Z,101525.69
2022-08-10T12:32:43.435Z,101528.00
2022-08-10T12:35:22.660Z,101520.38
2022-08-10T12:38:05.065Z,101510.44
2022-08-10T12:40:37.281Z,101496.84
2022-08-10T12:44:05.362Z,101507.25
2022-08-10T12:46:07.215Z,101506.75
2022-08-10T12:48:40.988Z,101499.44
2022-08-10T12:51:13.373Z,101484.41
2022-08-10T12:53:57.922Z,101499.44
2022-08-10T12:56:27.675Z,101488.00
2022-08-10T12:58:58.933Z,101484.81
2022-08-10T13:02:09.831Z,101482.16
2022-08-10T13:04:31.250Z,101432.22
2022-08-10T13:07:00.820Z,101472.69
2022-08-10T13:09:28.669Z,101472.97
2022-08-10T13:12:36.393Z,101444.41
2022-08-10T13:14:48.386Z,101468.34
2022-08-10T13:17:21.472Z,101455.75
2022-08-10T13:19:55.304Z,101457.72
2022-08-10T13:22:25.128Z,101465.72
2022-08-10T13:24:55.821Z,101456.66
2022-08-10T13:28:02.531Z,101449.84
2022-08-10T13:30:14.543Z,101444.34
2022-08-10T13:32:49.261Z,101437.22
2022-08-10T13:35:18.016Z,101443.50
2022-08-10T13:37:47.247Z,101446.00
2022-08-10T13:40:18.553Z,101418.53
2022-08-10T13:42:47.821Z,101424.59
2022-08-10T13:45:17.707Z,101421.56
2022-08-10T13:47:49.541Z,101421.78
2022-08-10T13:50:33.207Z,101405.34
2022-08-10T13:53:06.856Z,101420.41
2022-08-10T13:55:46.007Z,101416.78
2022-08-10T13:58:26.247Z,101409.88
2022-08-10T14:00:55.844Z,101413.59
2022-08-10T14:03:23.310Z,101400.09
2022-08-10T14:05:54.387Z,101410.22
2022-08-10T14:08:24.949Z,101410.81
2022-08-10T14:11:10.332Z,101409.78
2022-08-10T14:13:43.486Z,101408.50
2022-08-10T14:16:11.666Z,101400.66
2022-08-10T14:18:39.833Z,101379.22
2022-08-10T14:21:08.072Z,101392.34
2022-08-10T14:23:40.397Z,101391.75
2022-08-10T14:26:09.439Z,101395.38
2022-08-10T14:28:40.506Z,101361.03
2022-08-10T14:31:10.339Z,101372.03
2022-08-10T14:33:41.402Z,101387.09
2022-08-10T14:36:20.716Z,101333.28
2022-08-10T14:38:53.796Z,101376.88
2022-08-10T14:42:01.636Z,101378.19
2022-08-10T14:44:17.020Z,101369.09
2022-08-10T14:46:46.062Z,101365.53
2022-08-10T14:49:25.404Z,101365.56
2022-08-10T14:51:59.476Z,101376.84
2022-08-10T14:54:29.887Z,101363.38
2022-08-10T14:57:10.905Z,101356.56
2022-08-10T15:00:25.444Z,101359.94
2022-08-10T15:02:38.337Z,101346.78
2022-08-10T15:05:09.497Z,101352.19
2022-08-10T15:07:38.399Z,101371.59
2022-08-10T15:10:07.322Z,101357.19
2022-08-10T15:12:35.507Z,101364.31
2022-08-10T15:15:04.822Z,101338.19
2022-08-10T15:17:35.705Z,101355.91
2022-08-10T15:20:13.691Z,101347.75
2022-08-10T15:22:47.280Z,101339.34
2022-08-10T15:25:25.246Z,101330.09
2022-08-10T15:27:57.004Z,101343.97
2022-08-10T15:30:29.863Z,101339.50
2022-08-10T15:33:02.867Z,101344.22
2022-08-10T15:35:30.685Z,101340.00
2022-08-10T15:38:04.934Z,101337.13
2022-08-10T15:40:51.705Z,101329.47
2022-08-10T15:43:25.541Z,101313.78
2022-08-10T15:46:02.944Z,101332.53
2022-08-10T15:48:37.855Z,101326.00
2022-08-10T15:51:10.431Z,101328.75
2022-08-10T15:53:49.899Z,101326.63
2022-08-10T15:56:28.448Z,101303.53
2022-08-10T15:59:07.845Z,101317.91
2022-08-10T16:02:12.489Z,101296.41
2022-08-10T16:04:32.194Z,101308.22
2022-08-10T16:07:06.265Z,101322.75
2022-08-10T16:10:22.361Z,101299.16
2022-08-10T16:12:44.481Z,101300.31
2022-08-10T16:15:28.461Z,101312.25
2022-08-10T16:18:03.310Z,101308.66
2022-08-10T16:20:32.209Z,101304.75
2022-08-10T16:23:01.992Z,101278.84
2022-08-10T16:25:44.596Z,101301.94
2022-08-10T16:28:23.727Z,101304.91
2022-08-10T16:30:54.212Z,101297.78
2022-08-10T16:33:24.075Z,101296.50
2022-08-10T16:36:00.983Z,101301.81
2022-08-10T16:38:29.113Z,101300.28
2022-08-10T16:40:57.748Z,101297.91
2022-08-10T16:43:25.619Z,101300.22
2022-08-10T16:45:54.856Z,101276.81
2022-08-10T16:48:50.110Z,101299.31
2022-08-10T16:51:14.789Z,101288.25
2022-08-10T16:53:47.448Z,101297.47
2022-08-10T16:56:16.410Z,101292.56
2022-08-10T16:58:45.516Z,101298.88
2022-08-10T17:01:16.785Z,101265.13
2022-08-10T17:04:08.042Z,101288.91
2022-08-10T17:06:36.162Z,101289.09
2022-08-10T17:09:05.842Z,101289.59
2022-08-10T17:11:37.379Z,101292.44
2022-08-10T17:14:08.278Z,101289.84
2022-08-10T17:16:38.208Z,101283.59
2022-08-10T17:19:11.696Z,101290.75
2022-08-10T17:21:51.701Z,101289.09
2022-08-10T17:24:22.642Z,101281.31
2022-08-10T17:26:50.957Z,101287.81
2022-08-10T17:29:57.879Z,101295.19
2022-08-10T17:32:19.406Z,101284.00
2022-08-10T17:34:51.728Z,101279.03
2022-08-10T17:37:22.075Z,101277.94
2022-08-10T17:39:54.098Z,101289.16
2022-08-10T17:42:23.547Z,101272.09
2022-08-10T17:44:54.004Z,101288.47
2022-08-10T17:47:23.623Z,101285.31
2022-08-10T17:49:56.275Z,101281.41
2022-08-10T17:52:27.523Z,101277.63
2022-08-10T17:54:57.205Z,101279.44
2022-08-10T17:57:26.458Z,101281.97
2022-08-10T17:59:54.520Z,101259.50
2022-08-10T18:02:24.280Z,101289.81
2022-08-10T18:04:53.908Z,101267.97
2022-08-10T18:07:27.976Z,101294.00
2022-08-10T18:09:57.232Z,101286.81
2022-08-10T18:12:33.890Z,101283.06
2022-08-10T18:15:11.900Z,101293.56
2022-08-10T18:17:44.540Z,101292.50
2022-08-10T18:20:12.942Z,101286.44
2022-08-10T18:22:46.201Z,101294.44
2022-08-10T18:25:18.601Z,101295.06
2022-08-10T18:28:01.657Z,101301.88
2022-08-10T18:30:36.418Z,101298.59
2022-08-10T18:33:09.134Z,101305.16
2022-08-10T18:35:36.705Z,101304.31
2022-08-10T18:38:06.308Z,101303.94
2022-08-10T18:40:35.745Z,101289.72
2022-08-10T18:44:02.850Z,101314.13
2022-08-10T18:45:56.330Z,101304.56
2022-08-10T18:48:33.115Z,101318.81
2022-08-10T18:51:06.238Z,101319.25
2022-08-10T18:53:38.222Z,101326.16
2022-08-10T18:56:15.770Z,101327.63
2022-08-10T18:59:08.400Z,101320.88
2022-08-10T19:01:48.673Z,101301.25
2022-08-10T19:04:30.602Z,101326.84
2022-08-10T19:07:12.244Z,101326.84
2022-08-10T19:09:51.619Z,101335.75
2022-08-10T19:12:35.775Z,101320.75
2022-08-10T19:15:13.911Z,101337.94
2022-08-10T19:18:03.132Z,101329.72
2022-08-10T19:20:38.767Z,101342.94
2022-08-10T19:23:14.360Z,101349.75
2022-08-10T19:26:40.917Z,101336.81
2022-08-10T19:28:47.063Z,101346.09
2022-08-10T19:31:43.990Z,101342.69
2022-08-10T19:34:48.954Z,101351.56
2022-08-10T19:37:32.087Z,101353.94
2022-08-10T19:40:12.267Z,101341.75
2022-08-10T19:42:43.724Z,101356.94
2022-08-10T19:46:00.881Z,101348.06
2022-08-10T19:48:18.697Z,101367.66
2022-08-10T19:50:53.220Z,101293.09
2022-08-10T19:53:25.077Z,101365.78
2022-08-10T19:56:24.269Z,101370.16
2022-08-10T19:58:59.620Z,101371.59
2022-08-10T20:01:26.882Z,101292.78
2022-08-10T20:04:21.626Z,101379.63
2022-08-10T20:07:10.175Z,101382.09
2022-08-10T20:09:45.451Z,101363.97
2022-08-10T20:12:18.694Z,101381.19
2022-08-10T20:14:51.035Z,101376.56
2022-08-10T20:17:29.144Z,101389.84
2022-08-10T20:20:21.297Z,101393.94
2022-08-10T20:22:50.676Z,101405.72
2022-08-10T20:25:22.707Z,101395.91
2022-08-10T20:28:00.062Z,101403.34
2022-08-10T20:30:32.232Z,101396.41
2022-08-10T20:33:07.670Z,101398.66
2022-08-10T20:35:47.282Z,101408.91
2022-08-10T20:38:21.914Z,101396.59
2022-08-10T20:41:02.926Z,101401.31
2022-08-10T20:43:37.933Z,101381.41
2022-08-10T20:46:14.614Z,101392.38
2022-08-10T20:48:45.914Z,101395.59
2022-08-10T20:51:15.250Z,101415.44
2022-08-10T20:53:46.795Z,101416.59
2022-08-10T20:56:21.463Z,101412.16
2022-08-10T20:59:09.449Z,101414.16
2022-08-10T21:02:07.293Z,101383.69
2022-08-10T21:04:47.441Z,101407.88
2022-08-10T21:08:00.670Z,101404.91
2022-08-10T21:10:38.873Z,101417.00
2022-08-10T21:13:21.058Z,101409.84
2022-08-10T21:15:57.749Z,101400.59
2022-08-10T21:18:43.957Z,101405.25
2022-08-10T21:21:41.367Z,101419.91
2022-08-10T21:24:16.970Z,101417.94
2022-08-10T21:26:56.376Z,101415.53
2022-08-10T21:29:40.406Z,101413.31
2022-08-10T21:32:19.449Z,101408.19
2022-08-10T22:02:08.445Z,101404.06
2022-08-10T22:05:01.376Z,101398.94
2022-08-10T22:07:29.592Z,101404.47
2022-08-10T22:10:03.996Z,101403.34
2022-08-10T22:12:37.603Z,101385.84
2022-08-10T22:15:07.540Z,101376.84
2022-08-10T22:18:04.000Z,101398.88
2022-08-10T22:20:33.220Z,101401.28
2022-08-10T22:23:29.244Z,101390.78
2022-08-10T22:26:06.466Z,101396.50
2022-08-10T22:28:42.853Z,101396.38
2022-08-10T22:31:32.666Z,101406.13
2022-08-10T22:34:14.937Z,101391.25
2022-08-10T22:37:04.314Z,101402.09
2022-08-10T22:40:11.093Z,101401.13
2022-08-10T22:42:40.308Z,101395.78
2022-08-10T22:45:26.275Z,101394.78
2022-08-10T22:47:58.322Z,101387.97
2022-08-10T22:50:28.241Z,101400.19
2022-08-10T22:53:03.535Z,101395.81
2022-08-10T22:55:34.726Z,101395.66
2022-08-10T22:58:01.379Z,101397.19
2022-08-10T23:00:30.684Z,101402.22
2022-08-10T23:03:05.714Z,101399.00
2022-08-10T23:05:37.898Z,101397.69
2022-08-10T23:08:29.791Z,101398.22
2022-08-10T23:11:02.859Z,101394.38
2022-08-10T23:13:35.474Z,101393.19
2022-08-10T23:16:08.022Z,101392.66
2022-08-10T23:18:41.889Z,101395.81
2022-08-10T23:21:13.685Z,101391.97
2022-08-10T23:23:42.416Z,101399.66
2022-08-10T23:26:12.810Z,101398.00
2022-08-10T23:29:03.287Z,101396.63
2022-08-10T23:32:01.240Z,101377.22
2022-08-10T23:34:23.886Z,101387.13
2022-08-10T23:36:52.652Z,101376.53
2022-08-10T23:39:27.653Z,101379.19
2022-08-10T23:42:06.994Z,101393.22
2022-08-10T23:44:37.829Z,101384.81
2022-08-10T23:47:05.609Z,101382.44
2022-08-10T23:49:35.046Z,101393.47
2022-08-10T23:52:10.288Z,101395.97
2022-08-10T23:54:43.288Z,101397.28
2022-08-10T23:57:16.261Z,101378.50
2022-08-10T23:59:49.193Z,101401.75
